CheckWX is a tool to help pilots better visualize weather data.  It is not intended as a substitute for an official pre-flight weather briefing.

00:18:20 UTC

KHIF TAF
Hill AFB Airport
Ogden, Utah, USA
TAF KHIF 052209Z 0522/0704 VRB06KT 3200 BR OVC013 620134 QNH3017INS TEMPO 0522/0604 1600 -DZ BR BKN007 OVC013 620074 BECMG 0604/0605 12006KT 4800 BR BKN010 OVC013 620104 QNH3027INS BECMG 0611/0612 VRB06KT 3200 BR BKN010 OVC015 620104 QNH3022INS TEMPO 0612/0617 0800 FZFG BKN005 620054 TX02/0621Z TNM03/0613Z

Dec-5@
22:00 UTC

Dec-5 @ 22:00 UTC

Dec-6@
04:00 UTC

Dec-6 @ 04:00 UTC

TAF KHIF 052209Z 0522/0704 VRB06KT 3200 BR OVC013 620134 QNH3017INS
Wind
  • Variable at 6 KTS
Conditions
Mist
Cloud Levels
  • Overcast at 1,300' AGL
Icing
Light icing in cloud expected at 1,300' AGL extending to 5,300' AGL

Dec-5@
22:00 UTC

Dec-5 @ 22:00 UTC

Dec-6@
04:00 UTC

Dec-6 @ 04:00 UTC

TEMPO 0522/0604 1600 -DZ BR BKN007 OVC013 620074

Temporary

Temporary Changes expected for less than half the time period

Wind
  • 200° at 74 KTS
Conditions
Light Drizzle, Mist
Cloud Levels
  • Broken at 700' AGL
  • Overcast at 1,300' AGL

Dec-6@
04:00 UTC

Dec-6 @ 04:00 UTC

Dec-6@
11:00 UTC

Dec-6 @ 11:00 UTC

BECMG 0604/0605 12006KT 4800 BR BKN010 OVC013 620104 QNH3027INS

Becoming

Becoming Conditions expected by Fri, Dec 6, 2019 @ 05:00 UTC

Wind
  • 120° at 6 KTS
Conditions
Mist
Cloud Levels
  • Broken at 1,000' AGL
  • Overcast at 1,300' AGL
Icing
Light icing in cloud expected at 1,000' AGL extending to 5,000' AGL

Dec-6@
11:00 UTC

Dec-6 @ 11:00 UTC

Dec-7@
04:00 UTC

Dec-7 @ 04:00 UTC

BECMG 0611/0612 VRB06KT 3200 BR BKN010 OVC015 620104 QNH3022INS

Becoming

Becoming Conditions expected by Fri, Dec 6, 2019 @ 12:00 UTC

Wind
  • Variable at 6 KTS
Conditions
Mist
Cloud Levels
  • Broken at 1,000' AGL
  • Overcast at 1,500' AGL
Icing
Light icing in cloud expected at 1,000' AGL extending to 5,000' AGL

Dec-6@
12:00 UTC

Dec-6 @ 12:00 UTC

Dec-6@
17:00 UTC

Dec-6 @ 17:00 UTC

TEMPO 0612/0617 0800 FZFG BKN005 620054 TX02/0621Z TNM03/0613Z

Temporary

Temporary Changes expected for less than half the time period

Wind
  • 200° at 54 KTS
Conditions
Freezing Fog
Cloud Levels
  • Broken at 500' AGL